sensor_id;sensor_type;location;lat;lon;timestamp;temperature;humidity
10390;DHT22;5241;47.830;12.972;2023-06-14T00:02:12;10.60;96.10
10390;DHT22;5241;47.830;12.972;2023-06-14T00:04:37;10.60;96.70
10390;DHT22;5241;47.830;12.972;2023-06-14T00:07:05;10.70;96.90
10390;DHT22;5241;47.830;12.972;2023-06-14T00:09:33;10.80;96.60
10390;DHT22;5241;47.830;12.972;2023-06-14T00:11:59;10.70;96.40
10390;DHT22;5241;47.830;12.972;2023-06-14T00:14:24;10.60;96.60
10390;DHT22;5241;47.830;12.972;2023-06-14T00:16:50;10.50;96.90
10390;DHT22;5241;47.830;12.972;2023-06-14T00:19:17;10.40;97.00
10390;DHT22;5241;47.830;12.972;2023-06-14T00:21:43;10.30;97.30
10390;DHT22;5241;47.830;12.972;2023-06-14T00:24:09;10.30;97.90
10390;DHT22;5241;47.830;12.972;2023-06-14T00:26:34;10.20;97.70
10390;DHT22;5241;47.830;12.972;2023-06-14T00:29:00;10.10;97.70
10390;DHT22;5241;47.830;12.972;2023-06-14T00:31:25;10.00;98.20
10390;DHT22;5241;47.830;12.972;2023-06-14T00:33:51;10.00;98.50
10390;DHT22;5241;47.830;12.972;2023-06-14T00:36:16;9.90;98.70
10390;DHT22;5241;47.830;12.972;2023-06-14T00:38:42;10.00;98.70
10390;DHT22;5241;47.830;12.972;2023-06-14T00:41:08;9.90;98.80
10390;DHT22;5241;47.830;12.972;2023-06-14T00:43:33;9.80;99.20
10390;DHT22;5241;47.830;12.972;2023-06-14T00:46:00;9.90;99.40
10390;DHT22;5241;47.830;12.972;2023-06-14T00:48:25;9.80;99.30
10390;DHT22;5241;47.830;12.972;2023-06-14T00:50:52;9.90;99.80
10390;DHT22;5241;47.830;12.972;2023-06-14T00:53:18;9.80;99.90
10390;DHT22;5241;47.830;12.972;2023-06-14T00:55:46;9.80;99.90
10390;DHT22;5241;47.830;12.972;2023-06-14T00:58:12;9.80;99.90
10390;DHT22;5241;47.830;12.972;2023-06-14T01:00:37;9.90;99.90
10390;DHT22;5241;47.830;12.972;2023-06-14T01:03:03;10.00;99.90
10390;DHT22;5241;47.830;12.972;2023-06-14T01:05:29;10.00;99.90
10390;DHT22;5241;47.830;12.972;2023-06-14T01:15:47;9.90;99.90
10390;DHT22;5241;47.830;12.972;2023-06-14T01:18:13;9.90;99.90
10390;DHT22;5241;47.830;12.972;2023-06-14T01:20:46;9.80;99.90
10390;DHT22;5241;47.830;12.972;2023-06-14T01:23:16;9.70;99.90
10390;DHT22;5241;47.830;12.972;2023-06-14T01:25:42;9.80;99.90
10390;DHT22;5241;47.830;12.972;2023-06-14T01:28:10;9.80;99.90
10390;DHT22;5241;47.830;12.972;2023-06-14T01:30:40;9.70;99.90
10390;DHT22;5241;47.830;12.972;2023-06-14T01:33:19;9.70;99.90
10390;DHT22;5241;47.830;12.972;2023-06-14T01:35:48;9.80;99.90
10390;DHT22;5241;47.830;12.972;2023-06-14T01:38:14;9.70;99.90
10390;DHT22;5241;47.830;12.972;2023-06-14T01:40:42;9.70;99.90
10390;DHT22;5241;47.830;12.972;2023-06-14T01:43:10;9.50;99.90
10390;DHT22;5241;47.830;12.972;2023-06-14T01:45:36;9.50;99.90
10390;DHT22;5241;47.830;12.972;2023-06-14T01:48:03;9.60;99.90
10390;DHT22;5241;47.830;12.972;2023-06-14T01:50:31;9.60;99.90
10390;DHT22;5241;47.830;12.972;2023-06-14T01:52:57;9.60;99.90
10390;DHT22;5241;47.830;12.972;2023-06-14T01:55:22;9.70;99.90
10390;DHT22;5241;47.830;12.972;2023-06-14T01:57:50;9.80;99.90
10390;DHT22;5241;47.830;12.972;2023-06-14T02:00:16;9.70;99.90
10390;DHT22;5241;47.830;12.972;2023-06-14T02:02:43;9.50;99.90
10390;DHT22;5241;47.830;12.972;2023-06-14T02:05:09;9.40;99.90
10390;DHT22;5241;47.830;12.972;2023-06-14T02:07:35;9.40;99.90
10390;DHT22;5241;47.830;12.972;2023-06-14T02:10:02;9.50;99.90
10390;DHT22;5241;47.830;12.972;2023-06-14T02:12:28;9.30;99.90
10390;DHT22;5241;47.830;12.972;2023-06-14T02:14:53;9.30;99.90
10390;DHT22;5241;47.830;12.972;2023-06-14T02:17:19;9.30;99.90
10390;DHT22;5241;47.830;12.972;2023-06-14T02:19:45;9.30;99.90
10390;DHT22;5241;47.830;12.972;2023-06-14T02:22:11;9.40;99.90
10390;DHT22;5241;47.830;12.972;2023-06-14T02:24:37;9.30;99.90
10390;DHT22;5241;47.830;12.972;2023-06-14T02:27:03;9.10;99.90
10390;DHT22;5241;47.830;12.972;2023-06-14T02:29:29;9.00;99.90
10390;DHT22;5241;47.830;12.972;2023-06-14T02:31:55;8.80;99.90
10390;DHT22;5241;47.830;12.972;2023-06-14T02:34:20;8.70;99.90
10390;DHT22;5241;47.830;12.972;2023-06-14T02:36:47;8.70;99.90
10390;DHT22;5241;47.830;12.972;2023-06-14T02:39:13;8.60;99.90
10390;DHT22;5241;47.830;12.972;2023-06-14T02:41:39;8.70;99.90
10390;DHT22;5241;47.830;12.972;2023-06-14T02:44:06;8.70;99.90
10390;DHT22;5241;47.830;12.972;2023-06-14T02:46:32;8.70;99.90
10390;DHT22;5241;47.830;12.972;2023-06-14T02:48:57;8.90;99.90
10390;DHT22;5241;47.830;12.972;2023-06-14T02:51:23;8.90;99.90
10390;DHT22;5241;47.830;12.972;2023-06-14T02:53:48;8.90;99.90
10390;DHT22;5241;47.830;12.972;2023-06-14T02:56:14;9.00;99.90
10390;DHT22;5241;47.830;12.972;2023-06-14T02:58:42;8.90;99.90
10390;DHT22;5241;47.830;12.972;2023-06-14T03:01:08;8.80;99.90
10390;DHT22;5241;47.830;12.972;2023-06-14T03:03:38;8.80;99.90
10390;DHT22;5241;47.830;12.972;2023-06-14T03:06:03;8.70;99.90
10390;DHT22;5241;47.830;12.972;2023-06-14T03:08:31;8.80;99.90
10390;DHT22;5241;47.830;12.972;2023-06-14T03:11:04;8.80;99.90
10390;DHT22;5241;47.830;12.972;2023-06-14T03:13:31;8.70;99.90
10390;DHT22;5241;47.830;12.972;2023-06-14T03:15:57;8.80;99.90
10390;DHT22;5241;47.830;12.972;2023-06-14T03:18:23;8.80;99.90
10390;DHT22;5241;47.830;12.972;2023-06-14T03:20:49;8.80;99.90
10390;DHT22;5241;47.830;12.972;2023-06-14T03:23:16;8.70;99.90
10390;DHT22;5241;47.830;12.972;2023-06-14T03:25:41;8.60;99.90
10390;DHT22;5241;47.830;12.972;2023-06-14T03:28:07;8.50;99.90
10390;DHT22;5241;47.830;12.972;2023-06-14T03:30:33;8.50;99.90
10390;DHT22;5241;47.830;12.972;2023-06-14T03:32:59;8.50;99.90
10390;DHT22;5241;47.830;12.972;2023-06-14T03:35:27;8.60;99.90
10390;DHT22;5241;47.830;12.972;2023-06-14T03:37:53;8.60;99.90
10390;DHT22;5241;47.830;12.972;2023-06-14T03:40:19;8.60;99.90
10390;DHT22;5241;47.830;12.972;2023-06-14T03:42:45;8.70;99.90
10390;DHT22;5241;47.830;12.972;2023-06-14T03:45:11;8.80;99.90
10390;DHT22;5241;47.830;12.972;2023-06-14T03:47:36;8.80;99.90
10390;DHT22;5241;47.830;12.972;2023-06-14T03:50:03;8.90;99.90
10390;DHT22;5241;47.830;12.972;2023-06-14T03:52:29;8.90;99.90
10390;DHT22;5241;47.830;12.972;2023-06-14T03:54:55;8.90;99.90
10390;DHT22;5241;47.830;12.972;2023-06-14T03:57:22;9.00;99.90
10390;DHT22;5241;47.830;12.972;2023-06-14T03:59:48;9.10;99.90
10390;DHT22;5241;47.830;12.972;2023-06-14T04:02:14;9.00;99.90
10390;DHT22;5241;47.830;12.972;2023-06-14T04:04:41;8.90;99.90
10390;DHT22;5241;47.830;12.972;2023-06-14T04:07:09;8.80;99.90
10390;DHT22;5241;47.830;12.972;2023-06-14T04:09:35;8.90;99.90
10390;DHT22;5241;47.830;12.972;2023-06-14T04:12:01;8.90;99.90
10390;DHT22;5241;47.830;12.972;2023-06-14T04:14:26;9.00;99.90
10390;DHT22;5241;47.830;12.972;2023-06-14T04:16:52;9.10;99.90
10390;DHT22;5241;47.830;12.972;2023-06-14T04:19:17;9.20;99.90
10390;DHT22;5241;47.830;12.972;2023-06-14T04:21:43;9.30;99.90
10390;DHT22;5241;47.830;12.972;2023-06-14T04:24:08;9.40;99.90
10390;DHT22;5241;47.830;12.972;2023-06-14T04:26:39;9.50;99.90
10390;DHT22;5241;47.830;12.972;2023-06-14T04:29:05;9.60;99.90
10390;DHT22;5241;47.830;12.972;2023-06-14T04:31:32;9.70;99.90
10390;DHT22;5241;47.830;12.972;2023-06-14T04:34:03;9.80;99.90
10390;DHT22;5241;47.830;12.972;2023-06-14T04:36:32;10.00;99.90
10390;DHT22;5241;47.830;12.972;2023-06-14T04:39:00;10.10;99.90
10390;DHT22;5241;47.830;12.972;2023-06-14T04:41:26;10.30;99.90
10390;DHT22;5241;47.830;12.972;2023-06-14T04:43:56;10.50;99.90
10390;DHT22;5241;47.830;12.972;2023-06-14T04:46:29;10.50;99.90
10390;DHT22;5241;47.830;12.972;2023-06-14T04:48:57;10.60;99.90
10390;DHT22;5241;47.830;12.972;2023-06-14T04:51:27;10.70;99.90
10390;DHT22;5241;47.830;12.972;2023-06-14T04:53:57;11.00;99.90
10390;DHT22;5241;47.830;12.972;2023-06-14T04:56:24;11.20;99.90
10390;DHT22;5241;47.830;12.972;2023-06-14T04:58:50;11.30;99.90
10390;DHT22;5241;47.830;12.972;2023-06-14T05:01:16;11.40;99.90
10390;DHT22;5241;47.830;12.972;2023-06-14T05:03:41;11.40;99.90
10390;DHT22;5241;47.830;12.972;2023-06-14T05:06:10;11.60;99.90
10390;DHT22;5241;47.830;12.972;2023-06-14T05:08:36;11.60;99.90
10390;DHT22;5241;47.830;12.972;2023-06-14T05:11:02;11.80;99.90
10390;DHT22;5241;47.830;12.972;2023-06-14T05:13:28;11.90;99.90
10390;DHT22;5241;47.830;12.972;2023-06-14T05:15:53;12.10;99.90
10390;DHT22;5241;47.830;12.972;2023-06-14T05:18:19;12.30;99.90
10390;DHT22;5241;47.830;12.972;2023-06-14T05:20:45;12.50;99.90
10390;DHT22;5241;47.830;12.972;2023-06-14T05:23:11;12.70;99.90
10390;DHT22;5241;47.830;12.972;2023-06-14T05:25:44;12.80;99.90
10390;DHT22;5241;47.830;12.972;2023-06-14T05:28:11;13.00;99.90
10390;DHT22;5241;47.830;12.972;2023-06-14T05:30:38;13.20;99.90
10390;DHT22;5241;47.830;12.972;2023-06-14T05:33:04;13.50;99.90
10390;DHT22;5241;47.830;12.972;2023-06-14T05:35:30;13.80;99.60
10390;DHT22;5241;47.830;12.972;2023-06-14T05:37:55;14.20;99.30
10390;DHT22;5241;47.830;12.972;2023-06-14T05:40:21;14.40;98.60
10390;DHT22;5241;47.830;12.972;2023-06-14T05:42:47;14.70;98.70
10390;DHT22;5241;47.830;12.972;2023-06-14T05:45:12;15.40;96.80
10390;DHT22;5241;47.830;12.972;2023-06-14T05:47:40;15.40;96.20
10390;DHT22;5241;47.830;12.972;2023-06-14T05:50:06;16.40;94.60
10390;DHT22;5241;47.830;12.972;2023-06-14T05:52:31;17.00;92.80
10390;DHT22;5241;47.830;12.972;2023-06-14T05:54:57;17.40;90.40
10390;DHT22;5241;47.830;12.972;2023-06-14T05:57:22;17.80;88.90
10390;DHT22;5241;47.830;12.972;2023-06-14T05:59:48;18.00;85.30
10390;DHT22;5241;47.830;12.972;2023-06-14T06:02:13;18.40;84.10
10390;DHT22;5241;47.830;12.972;2023-06-14T06:04:39;18.60;83.70
10390;DHT22;5241;47.830;12.972;2023-06-14T06:07:04;18.50;81.10
10390;DHT22;5241;47.830;12.972;2023-06-14T06:09:30;18.40;84.30
10390;DHT22;5241;47.830;12.972;2023-06-14T06:11:56;18.80;84.80
10390;DHT22;5241;47.830;12.972;2023-06-14T06:14:21;19.70;78.70
10390;DHT22;5241;47.830;12.972;2023-06-14T06:16:47;19.90;76.20
10390;DHT22;5241;47.830;12.972;2023-06-14T06:19:13;19.90;76.20
10390;DHT22;5241;47.830;12.972;2023-06-14T06:21:39;20.30;73.10
10390;DHT22;5241;47.830;12.972;2023-06-14T06:24:05;20.60;73.30
10390;DHT22;5241;47.830;12.972;2023-06-14T06:26:31;20.40;73.80
10390;DHT22;5241;47.830;12.972;2023-06-14T06:28:57;20.70;72.40
10390;DHT22;5241;47.830;12.972;2023-06-14T06:31:23;20.70;72.30
10390;DHT22;5241;47.830;12.972;2023-06-14T06:33:49;21.40;70.90
10390;DHT22;5241;47.830;12.972;2023-06-14T06:36:16;21.70;69.20
10390;DHT22;5241;47.830;12.972;2023-06-14T06:38:41;21.10;69.80
10390;DHT22;5241;47.830;12.972;2023-06-14T06:41:07;21.40;68.70
10390;DHT22;5241;47.830;12.972;2023-06-14T06:43:32;21.80;68.80
10390;DHT22;5241;47.830;12.972;2023-06-14T06:45:58;21.70;66.40
10390;DHT22;5241;47.830;12.972;2023-06-14T06:48:24;21.10;69.80
10390;DHT22;5241;47.830;12.972;2023-06-14T06:50:49;21.30;69.00
10390;DHT22;5241;47.830;12.972;2023-06-14T06:53:15;21.70;67.70
10390;DHT22;5241;47.830;12.972;2023-06-14T06:55:40;22.30;66.10
10390;DHT22;5241;47.830;12.972;2023-06-14T06:58:06;22.00;66.10
10390;DHT22;5241;47.830;12.972;2023-06-14T07:00:32;21.50;68.70
10390;DHT22;5241;47.830;12.972;2023-06-14T07:02:57;21.60;66.40
10390;DHT22;5241;47.830;12.972;2023-06-14T07:05:23;21.40;68.40
10390;DHT22;5241;47.830;12.972;2023-06-14T07:07:48;21.60;68.20
10390;DHT22;5241;47.830;12.972;2023-06-14T07:10:14;21.40;68.10
10390;DHT22;5241;47.830;12.972;2023-06-14T07:12:40;22.00;66.50
10390;DHT22;5241;47.830;12.972;2023-06-14T07:15:09;22.10;65.30
10390;DHT22;5241;47.830;12.972;2023-06-14T07:17:35;22.00;66.30
10390;DHT22;5241;47.830;12.972;2023-06-14T07:20:02;21.60;66.00
10390;DHT22;5241;47.830;12.972;2023-06-14T07:22:33;21.80;65.80
10390;DHT22;5241;47.830;12.972;2023-06-14T07:24:58;22.00;65.90
10390;DHT22;5241;47.830;12.972;2023-06-14T07:27:24;21.90;65.00
10390;DHT22;5241;47.830;12.972;2023-06-14T07:29:50;21.90;65.80
10390;DHT22;5241;47.830;12.972;2023-06-14T07:32:15;22.10;64.50
10390;DHT22;5241;47.830;12.972;2023-06-14T07:34:41;21.90;65.80
10390;DHT22;5241;47.830;12.972;2023-06-14T07:37:06;22.20;65.90
10390;DHT22;5241;47.830;12.972;2023-06-14T07:39:32;21.80;67.40
10390;DHT22;5241;47.830;12.972;2023-06-14T07:41:58;22.60;65.70
10390;DHT22;5241;47.830;12.972;2023-06-14T07:44:23;22.90;66.00
10390;DHT22;5241;47.830;12.972;2023-06-14T07:46:49;23.00;66.60
10390;DHT22;5241;47.830;12.972;2023-06-14T07:49:17;22.90;67.20
10390;DHT22;5241;47.830;12.972;2023-06-14T07:51:42;22.90;67.00
10390;DHT22;5241;47.830;12.972;2023-06-14T07:54:09;23.10;67.20
10390;DHT22;5241;47.830;12.972;2023-06-14T07:56:35;22.70;69.50
10390;DHT22;5241;47.830;12.972;2023-06-14T07:59:01;22.70;68.60
10390;DHT22;5241;47.830;12.972;2023-06-14T08:01:27;22.90;69.20
10390;DHT22;5241;47.830;12.972;2023-06-14T08:03:53;22.80;70.10
10390;DHT22;5241;47.830;12.972;2023-06-14T08:06:19;22.90;70.20
10390;DHT22;5241;47.830;12.972;2023-06-14T08:08:44;23.20;69.80
10390;DHT22;5241;47.830;12.972;2023-06-14T08:11:10;23.60;68.50
10390;DHT22;5241;47.830;12.972;2023-06-14T08:13:35;23.10;69.90
10390;DHT22;5241;47.830;12.972;2023-06-14T08:16:01;23.30;69.40
10390;DHT22;5241;47.830;12.972;2023-06-14T08:18:26;23.50;70.00
10390;DHT22;5241;47.830;12.972;2023-06-14T08:20:52;23.20;70.10
10390;DHT22;5241;47.830;12.972;2023-06-14T08:23:19;23.00;70.70
10390;DHT22;5241;47.830;12.972;2023-06-14T08:25:46;23.10;69.30
10390;DHT22;5241;47.830;12.972;2023-06-14T08:28:12;23.00;70.50
10390;DHT22;5241;47.830;12.972;2023-06-14T08:30:37;23.10;69.90
10390;DHT22;5241;47.830;12.972;2023-06-14T08:33:03;23.70;69.00
10390;DHT22;5241;47.830;12.972;2023-06-14T08:35:29;24.20;67.70
10390;DHT22;5241;47.830;12.972;2023-06-14T08:37:54;24.10;67.80
10390;DHT22;5241;47.830;12.972;2023-06-14T08:40:22;24.40;67.00
10390;DHT22;5241;47.830;12.972;2023-06-14T08:42:52;24.80;65.60
10390;DHT22;5241;47.830;12.972;2023-06-14T08:45:19;24.60;67.00
10390;DHT22;5241;47.830;12.972;2023-06-14T08:47:45;24.90;65.50
10390;DHT22;5241;47.830;12.972;2023-06-14T08:50:21;24.80;65.10
10390;DHT22;5241;47.830;12.972;2023-06-14T08:52:48;24.50;66.10
10390;DHT22;5241;47.830;12.972;2023-06-14T08:55:18;24.80;65.40
10390;DHT22;5241;47.830;12.972;2023-06-14T08:57:46;24.50;65.50
10390;DHT22;5241;47.830;12.972;2023-06-14T09:00:13;24.60;65.10
10390;DHT22;5241;47.830;12.972;2023-06-14T09:02:40;24.50;66.40
10390;DHT22;5241;47.830;12.972;2023-06-14T09:05:11;24.90;65.60
10390;DHT22;5241;47.830;12.972;2023-06-14T09:07:43;25.20;64.90
10390;DHT22;5241;47.830;12.972;2023-06-14T09:10:11;24.70;65.90
10390;DHT22;5241;47.830;12.972;2023-06-14T09:12:37;25.00;64.20
10390;DHT22;5241;47.830;12.972;2023-06-14T09:15:04;25.30;64.40
10390;DHT22;5241;47.830;12.972;2023-06-14T09:17:37;25.10;62.60
10390;DHT22;5241;47.830;12.972;2023-06-14T09:20:07;24.90;64.60
10390;DHT22;5241;47.830;12.972;2023-06-14T09:22:39;25.20;63.40
10390;DHT22;5241;47.830;12.972;2023-06-14T09:25:05;25.50;63.00
10390;DHT22;5241;47.830;12.972;2023-06-14T09:27:32;25.20;63.80
10390;DHT22;5241;47.830;12.972;2023-06-14T09:29:58;25.30;61.10
10390;DHT22;5241;47.830;12.972;2023-06-14T09:32:24;24.20;63.70
10390;DHT22;5241;47.830;12.972;2023-06-14T09:34:50;24.30;63.40
10390;DHT22;5241;47.830;12.972;2023-06-14T09:37:32;24.30;63.30
10390;DHT22;5241;47.830;12.972;2023-06-14T09:39:58;24.80;63.50
10390;DHT22;5241;47.830;12.972;2023-06-14T09:42:24;24.90;63.10
10390;DHT22;5241;47.830;12.972;2023-06-14T09:44:54;24.60;61.70
10390;DHT22;5241;47.830;12.972;2023-06-14T09:47:21;24.60;62.60
10390;DHT22;5241;47.830;12.972;2023-06-14T09:49:48;24.50;61.10
10390;DHT22;5241;47.830;12.972;2023-06-14T09:52:15;24.80;62.10
10390;DHT22;5241;47.830;12.972;2023-06-14T09:54:43;24.90;60.10
10390;DHT22;5241;47.830;12.972;2023-06-14T09:57:11;25.10;61.60
10390;DHT22;5241;47.830;12.972;2023-06-14T09:59:43;25.40;60.70
10390;DHT22;5241;47.830;12.972;2023-06-14T10:02:35;25.40;58.70
10390;DHT22;5241;47.830;12.972;2023-06-14T10:05:06;25.60;59.10
10390;DHT22;5241;47.830;12.972;2023-06-14T10:07:40;26.10;59.80
10390;DHT22;5241;47.830;12.972;2023-06-14T10:10:06;26.10;57.70
10390;DHT22;5241;47.830;12.972;2023-06-14T10:12:32;25.60;57.80
10390;DHT22;5241;47.830;12.972;2023-06-14T10:14:58;25.30;56.90
10390;DHT22;5241;47.830;12.972;2023-06-14T10:17:44;25.20;58.40
10390;DHT22;5241;47.830;12.972;2023-06-14T10:23:08;26.30;56.20
10390;DHT22;5241;47.830;12.972;2023-06-14T10:25:35;26.00;55.80
10390;DHT22;5241;47.830;12.972;2023-06-14T10:28:20;26.20;56.40
10390;DHT22;5241;47.830;12.972;2023-06-14T10:31:10;26.30;55.70
10390;DHT22;5241;47.830;12.972;2023-06-14T10:33:56;26.60;55.60
10390;DHT22;5241;47.830;12.972;2023-06-14T10:39:17;26.00;53.80
10390;DHT22;5241;47.830;12.972;2023-06-14T10:41:54;26.30;53.10
10390;DHT22;5241;47.830;12.972;2023-06-14T10:46:49;26.30;50.80
10390;DHT22;5241;47.830;12.972;2023-06-14T10:49:42;26.30;51.50
10390;DHT22;5241;47.830;12.972;2023-06-14T10:52:09;26.10;52.00
10390;DHT22;5241;47.830;12.972;2023-06-14T10:54:37;26.00;49.80
10390;DHT22;5241;47.830;12.972;2023-06-14T10:57:06;26.20;49.90
10390;DHT22;5241;47.830;12.972;2023-06-14T10:59:33;26.60;50.00
10390;DHT22;5241;47.830;12.972;2023-06-14T11:05:25;26.60;52.00
10390;DHT22;5241;47.830;12.972;2023-06-14T11:08:17;27.00;51.00
10390;DHT22;5241;47.830;12.972;2023-06-14T11:10:46;27.10;46.80
10390;DHT22;5241;47.830;12.972;2023-06-14T11:13:12;27.30;49.40
10390;DHT22;5241;47.830;12.972;2023-06-14T11:15:39;27.00;50.70
10390;DHT22;5241;47.830;12.972;2023-06-14T11:18:08;27.00;51.20
10390;DHT22;5241;47.830;12.972;2023-06-14T11:20:37;27.40;51.40
10390;DHT22;5241;47.830;12.972;2023-06-14T11:23:04;27.30;50.10
10390;DHT22;5241;47.830;12.972;2023-06-14T11:25:29;27.60;49.60
10390;DHT22;5241;47.830;12.972;2023-06-14T11:27:55;28.00;48.80
10390;DHT22;5241;47.830;12.972;2023-06-14T11:30:22;28.00;50.00
10390;DHT22;5241;47.830;12.972;2023-06-14T11:32:48;28.30;50.40
10390;DHT22;5241;47.830;12.972;2023-06-14T11:35:15;28.40;48.00
10390;DHT22;5241;47.830;12.972;2023-06-14T11:37:41;27.70;49.20
10390;DHT22;5241;47.830;12.972;2023-06-14T11:40:10;27.30;49.20
10390;DHT22;5241;47.830;12.972;2023-06-14T11:42:37;27.40;50.00
10390;DHT22;5241;47.830;12.972;2023-06-14T11:45:06;28.50;48.70
10390;DHT22;5241;47.830;12.972;2023-06-14T11:47:33;29.00;46.50
10390;DHT22;5241;47.830;12.972;2023-06-14T11:49:59;28.10;46.20
10390;DHT22;5241;47.830;12.972;2023-06-14T11:52:25;27.20;47.90
10390;DHT22;5241;47.830;12.972;2023-06-14T11:54:52;27.60;48.10
10390;DHT22;5241;47.830;12.972;2023-06-14T11:57:18;28.20;49.00
10390;DHT22;5241;47.830;12.972;2023-06-14T11:59:45;29.10;47.70
10390;DHT22;5241;47.830;12.972;2023-06-14T12:02:17;29.30;47.60
10390;DHT22;5241;47.830;12.972;2023-06-14T12:04:44;29.10;47.40
10390;DHT22;5241;47.830;12.972;2023-06-14T12:07:13;29.00;48.00
10390;DHT22;5241;47.830;12.972;2023-06-14T12:10:03;28.40;49.00
10390;DHT22;5241;47.830;12.972;2023-06-14T12:12:38;27.90;50.40
10390;DHT22;5241;47.830;12.972;2023-06-14T12:15:05;27.10;51.50
10390;DHT22;5241;47.830;12.972;2023-06-14T12:17:36;27.10;51.00
10390;DHT22;5241;47.830;12.972;2023-06-14T12:20:12;27.30;50.40
10390;DHT22;5241;47.830;12.972;2023-06-14T12:22:51;28.10;49.60
10390;DHT22;5241;47.830;12.972;2023-06-14T12:25:28;28.70;50.20
10390;DHT22;5241;47.830;12.972;2023-06-14T12:27:54;27.60;51.20
10390;DHT22;5241;47.830;12.972;2023-06-14T12:30:20;26.50;53.80
10390;DHT22;5241;47.830;12.972;2023-06-14T12:32:46;25.50;54.90
10390;DHT22;5241;47.830;12.972;2023-06-14T12:35:11;25.50;56.00
10390;DHT22;5241;47.830;12.972;2023-06-14T12:37:37;26.40;54.60
10390;DHT22;5241;47.830;12.972;2023-06-14T12:40:04;27.20;50.90
10390;DHT22;5241;47.830;12.972;2023-06-14T12:42:31;28.00;50.00
10390;DHT22;5241;47.830;12.972;2023-06-14T12:44:57;28.60;50.40
10390;DHT22;5241;47.830;12.972;2023-06-14T12:47:22;29.00;48.70
10390;DHT22;5241;47.830;12.972;2023-06-14T12:49:48;28.60;49.00
10390;DHT22;5241;47.830;12.972;2023-06-14T12:52:13;28.80;48.30
10390;DHT22;5241;47.830;12.972;2023-06-14T12:54:39;29.20;47.40
10390;DHT22;5241;47.830;12.972;2023-06-14T12:57:05;29.40;46.60
10390;DHT22;5241;47.830;12.972;2023-06-14T12:59:31;29.90;45.80
10390;DHT22;5241;47.830;12.972;2023-06-14T13:01:59;29.60;46.30
10390;DHT22;5241;47.830;12.972;2023-06-14T13:04:25;29.30;46.60
10390;DHT22;5241;47.830;12.972;2023-06-14T13:06:50;29.70;45.30
10390;DHT22;5241;47.830;12.972;2023-06-14T13:09:16;29.60;46.20
10390;DHT22;5241;47.830;12.972;2023-06-14T13:11:41;29.60;45.80
10390;DHT22;5241;47.830;12.972;2023-06-14T13:14:11;29.60;45.70
10390;DHT22;5241;47.830;12.972;2023-06-14T13:16:36;29.70;46.40
10390;DHT22;5241;47.830;12.972;2023-06-14T13:19:02;29.90;47.10
10390;DHT22;5241;47.830;12.972;2023-06-14T13:21:27;29.90;46.40
10390;DHT22;5241;47.830;12.972;2023-06-14T13:23:53;29.60;45.80
10390;DHT22;5241;47.830;12.972;2023-06-14T13:26:19;29.60;45.90
10390;DHT22;5241;47.830;12.972;2023-06-14T13:28:44;29.60;45.40
10390;DHT22;5241;47.830;12.972;2023-06-14T13:31:10;29.10;45.30
10390;DHT22;5241;47.830;12.972;2023-06-14T13:33:36;29.30;45.30
10390;DHT22;5241;47.830;12.972;2023-06-14T13:36:01;29.40;45.40
10390;DHT22;5241;47.830;12.972;2023-06-14T13:38:27;29.50;44.50
10390;DHT22;5241;47.830;12.972;2023-06-14T13:40:53;29.60;44.80
10390;DHT22;5241;47.830;12.972;2023-06-14T13:43:18;29.60;45.60
10390;DHT22;5241;47.830;12.972;2023-06-14T13:45:44;29.50;46.00
10390;DHT22;5241;47.830;12.972;2023-06-14T13:48:10;29.30;45.60
10390;DHT22;5241;47.830;12.972;2023-06-14T13:50:35;29.60;46.30
10390;DHT22;5241;47.830;12.972;2023-06-14T13:53:01;29.30;45.10
10390;DHT22;5241;47.830;12.972;2023-06-14T13:55:27;27.90;45.80
10390;DHT22;5241;47.830;12.972;2023-06-14T13:57:52;27.70;46.80
10390;DHT22;5241;47.830;12.972;2023-06-14T14:00:18;28.60;46.20
10390;DHT22;5241;47.830;12.972;2023-06-14T14:02:44;28.50;46.60
10390;DHT22;5241;47.830;12.972;2023-06-14T14:05:10;29.80;44.90
10390;DHT22;5241;47.830;12.972;2023-06-14T14:07:35;30.50;43.20
10390;DHT22;5241;47.830;12.972;2023-06-14T14:10:02;31.00;43.70
10390;DHT22;5241;47.830;12.972;2023-06-14T14:12:28;31.30;42.90
10390;DHT22;5241;47.830;12.972;2023-06-14T14:14:54;31.60;42.50
10390;DHT22;5241;47.830;12.972;2023-06-14T14:17:20;31.50;42.30
10390;DHT22;5241;47.830;12.972;2023-06-14T14:19:45;29.50;44.20
10390;DHT22;5241;47.830;12.972;2023-06-14T14:22:11;27.60;46.90
10390;DHT22;5241;47.830;12.972;2023-06-14T14:24:36;27.60;46.80
10390;DHT22;5241;47.830;12.972;2023-06-14T14:27:02;28.10;46.60
10390;DHT22;5241;47.830;12.972;2023-06-14T14:29:28;28.60;45.50
10390;DHT22;5241;47.830;12.972;2023-06-14T14:31:55;29.20;44.20
10390;DHT22;5241;47.830;12.972;2023-06-14T14:34:22;29.30;43.70
10390;DHT22;5241;47.830;12.972;2023-06-14T14:36:47;29.40;44.50
10390;DHT22;5241;47.830;12.972;2023-06-14T14:39:13;29.80;42.10
10390;DHT22;5241;47.830;12.972;2023-06-14T14:41:38;30.10;41.60
10390;DHT22;5241;47.830;12.972;2023-06-14T14:44:05;30.20;41.50
10390;DHT22;5241;47.830;12.972;2023-06-14T14:46:31;29.60;41.60
10390;DHT22;5241;47.830;12.972;2023-06-14T14:48:58;28.20;42.60
10390;DHT22;5241;47.830;12.972;2023-06-14T14:51:23;26.80;45.80
10390;DHT22;5241;47.830;12.972;2023-06-14T14:53:49;25.80;47.20
10390;DHT22;5241;47.830;12.972;2023-06-14T14:56:14;25.30;48.60
10390;DHT22;5241;47.830;12.972;2023-06-14T14:58:40;26.60;46.00
10390;DHT22;5241;47.830;12.972;2023-06-14T15:01:06;28.00;43.60
10390;DHT22;5241;47.830;12.972;2023-06-14T15:03:32;28.70;42.20
10390;DHT22;5241;47.830;12.972;2023-06-14T15:05:58;28.80;42.50
10390;DHT22;5241;47.830;12.972;2023-06-14T15:08:23;29.10;42.00
10390;DHT22;5241;47.830;12.972;2023-06-14T15:10:49;29.70;40.70
10390;DHT22;5241;47.830;12.972;2023-06-14T15:13:14;29.20;40.90
10390;DHT22;5241;47.830;12.972;2023-06-14T15:15:40;29.20;40.50
10390;DHT22;5241;47.830;12.972;2023-06-14T15:18:06;29.20;42.10
10390;DHT22;5241;47.830;12.972;2023-06-14T15:20:31;29.50;40.60
10390;DHT22;5241;47.830;12.972;2023-06-14T15:22:57;29.60;40.00
10390;DHT22;5241;47.830;12.972;2023-06-14T15:25:28;29.90;40.30
10390;DHT22;5241;47.830;12.972;2023-06-14T15:27:54;29.40;41.20
10390;DHT22;5241;47.830;12.972;2023-06-14T15:30:20;29.50;41.60
10390;DHT22;5241;47.830;12.972;2023-06-14T15:32:46;29.30;40.90
10390;DHT22;5241;47.830;12.972;2023-06-14T15:35:12;29.50;40.80
10390;DHT22;5241;47.830;12.972;2023-06-14T15:37:37;29.40;40.90
10390;DHT22;5241;47.830;12.972;2023-06-14T15:40:04;30.20;39.50
10390;DHT22;5241;47.830;12.972;2023-06-14T15:42:30;29.90;39.60
10390;DHT22;5241;47.830;12.972;2023-06-14T15:44:55;29.10;39.30
10390;DHT22;5241;47.830;12.972;2023-06-14T15:47:21;28.80;40.40
10390;DHT22;5241;47.830;12.972;2023-06-14T15:49:46;29.30;40.20
10390;DHT22;5241;47.830;12.972;2023-06-14T15:52:12;29.60;39.90
10390;DHT22;5241;47.830;12.972;2023-06-14T15:54:38;29.30;39.80